createdAt,value
2023-04-30T00:01:40.426Z,17.80
2023-04-30T00:16:44.992Z,17.70
2023-04-30T00:31:49.490Z,17.60
2023-04-30T00:46:53.951Z,17.40
2023-04-30T01:01:58.465Z,17.30
2023-04-30T01:17:07.496Z,17.40
2023-04-30T01:32:12.848Z,17.30
2023-04-30T01:47:25.622Z,17.10
2023-04-30T02:02:30.327Z,17.00
2023-04-30T02:17:34.837Z,17.00
2023-04-30T02:32:39.427Z,16.90
2023-04-30T02:47:43.870Z,16.80
2023-04-30T03:02:48.427Z,16.70
2023-04-30T03:17:53.015Z,16.60
2023-04-30T03:32:58.004Z,16.50
2023-04-30T03:48:02.400Z,16.50
2023-04-30T04:03:07.423Z,16.60
2023-04-30T04:18:12.050Z,16.50
2023-04-30T04:33:17.227Z,16.40
2023-04-30T04:48:22.147Z,16.30
2023-04-30T05:03:27.383Z,16.20
2023-04-30T05:18:31.973Z,16.10
2023-04-30T05:33:37.158Z,16.20
2023-04-30T05:48:41.799Z,15.90
2023-04-30T06:03:46.232Z,16.30
2023-04-30T06:18:52.934Z,16.30
2023-04-30T06:33:58.069Z,16.40
2023-04-30T06:49:02.509Z,16.40
2023-04-30T07:04:07.098Z,16.60
2023-04-30T07:19:11.544Z,16.60
2023-04-30T07:34:15.902Z,16.60
2023-04-30T07:49:20.188Z,16.60
2023-04-30T08:04:24.721Z,16.80
2023-04-30T08:19:29.168Z,16.90
2023-04-30T08:34:33.686Z,17.10
2023-04-30T08:49:38.380Z,17.30
2023-04-30T09:04:42.755Z,17.30
2023-04-30T09:19:47.260Z,17.40
2023-04-30T09:34:52.094Z,17.60
2023-04-30T09:49:56.676Z,17.70
2023-04-30T10:05:02.038Z,18.10
2023-04-30T10:20:10.548Z,18.00
2023-04-30T10:35:20.553Z,18.40
2023-04-30T10:50:25.120Z,18.40
2023-04-30T11:05:40.095Z,18.80
2023-04-30T11:20:51.920Z,19.20
2023-04-30T11:35:57.708Z,19.30
2023-04-30T11:51:04.695Z,19.50
2023-04-30T12:06:11.500Z,19.60
2023-04-30T12:21:17.184Z,20.00
2023-04-30T12:36:21.858Z,20.50
2023-04-30T12:51:28.504Z,20.80
2023-04-30T13:06:33.323Z,20.80
2023-04-30T13:21:37.804Z,21.30
2023-04-30T13:36:42.473Z,21.40
2023-04-30T13:51:46.835Z,22.20
2023-04-30T14:06:52.879Z,21.20
2023-04-30T14:21:57.383Z,20.90
2023-04-30T14:37:03.827Z,20.30
2023-04-30T14:52:08.231Z,20.30
2023-04-30T15:07:12.800Z,20.40
2023-04-30T15:22:17.357Z,20.70
2023-04-30T15:37:21.965Z,20.70
2023-04-30T15:52:26.327Z,20.80
2023-04-30T16:07:32.652Z,20.70
2023-04-30T16:22:37.358Z,20.50
2023-04-30T16:37:41.858Z,20.40
2023-04-30T16:52:46.269Z,20.30
2023-04-30T17:07:50.689Z,20.40
2023-04-30T17:22:55.964Z,20.60
2023-04-30T17:38:00.551Z,20.50
2023-04-30T17:53:04.970Z,20.50
2023-04-30T18:08:10.199Z,20.30
2023-04-30T18:23:15.308Z,20.20
2023-04-30T18:38:20.606Z,20.00
2023-04-30T18:53:25.701Z,20.00
2023-04-30T19:08:30.119Z,19.80
2023-04-30T19:23:35.638Z,19.80
2023-04-30T19:38:40.692Z,19.70
2023-04-30T19:53:45.180Z,19.70
2023-04-30T20:08:49.841Z,19.70
2023-04-30T20:23:55.991Z,19.60
2023-04-30T20:39:00.619Z,19.50
2023-04-30T20:54:05.188Z,19.50
2023-04-30T21:09:10.606Z,19.40
2023-04-30T21:24:15.087Z,19.30
2023-04-30T21:39:19.846Z,19.30
2023-04-30T21:54:24.262Z,19.10
2023-04-30T22:09:28.587Z,19.10
2023-04-30T22:24:33.356Z,19.10
2023-04-30T22:39:37.926Z,19.00
2023-04-30T22:54:42.801Z,18.80
2023-04-30T23:09:47.279Z,18.80
2023-04-30T23:24:51.850Z,18.90
2023-04-30T23:39:56.638Z,18.80
2023-04-30T23:55:01.448Z,18.80
